Time;durP1;ratioP1;P1;durP2;ratioP2;P2;SDS_P1;SDS_P2;PMS_P1;PMS_P2;Temp;Humidity;BMP_temperature;BMP_pressure;BME280_temperature;BME280_humidity;BME280_pressure;Samples;Min_cycle;Max_cycle;Signal;HPM_P1;HPM_P2
2021/12/25 09:07:14;;;;;;;316.83;148.68;;;8.30;99.90;;;;;;5093360;27;20544;-86
2021/12/25 09:09:40;;;;;;;335.58;159.23;;;8.40;99.90;;;;;;5091871;28;20111;-87
2021/12/25 09:12:11;;;;;;;282.92;137.70;;;8.60;99.90;;;;;;5092150;28;20048;-87
2021/12/25 09:14:37;;;;;;;281.70;138.75;;;8.80;99.90;;;;;;5091263;28;20052;-87
2021/12/25 09:17:04;;;;;;;270.45;136.25;;;9.10;99.90;;;;;;5091781;28;20042;-86
2021/12/25 09:19:30;;;;;;;283.95;150.30;;;9.30;99.90;;;;;;5090776;28;20493;-87
2021/12/25 09:21:57;;;;;;;225.32;116.43;;;9.60;99.90;;;;;;5091705;28;20474;-87
2021/12/25 09:24:23;;;;;;;114.95;59.72;;;9.80;99.90;;;;;;5091522;28;20111;-87
2021/12/25 09:26:49;;;;;;;151.93;81.20;;;10.20;99.90;;;;;;5091378;28;20432;-87
2021/12/25 09:29:15;;;;;;;71.88;35.92;;;10.50;99.90;;;;;;5091351;28;20024;-87
2021/12/25 09:31:41;;;;;;;58.20;31.70;;;10.70;99.90;;;;;;5092791;28;20052;-87
2021/12/25 09:34:07;;;;;;;72.90;37.83;;;11.10;99.90;;;;;;5090903;28;20052;-87
2021/12/25 09:36:34;;;;;;;78.38;41.45;;;11.30;99.90;;;;;;5091444;28;20021;-87
2021/12/25 09:39:01;;;;;;;78.82;40.88;;;11.40;99.90;;;;;;5092559;28;20013;-87
2021/12/25 09:41:27;;;;;;;20.13;8.25;;;11.50;99.90;;;;;;5091761;28;20115;-87
2021/12/25 09:43:53;;;;;;;25.50;11.25;;;11.60;99.90;;;;;;5092250;28;20156;-88
2021/12/25 09:46:20;;;;;;;13.77;5.63;;;11.90;99.90;;;;;;5091259;28;20025;-86
2021/12/25 09:48:47;;;;;;;9.57;4.47;;;12.10;99.90;;;;;;5090983;28;20115;-87
2021/12/25 09:51:13;;;;;;;5.95;3.08;;;12.30;99.90;;;;;;5091216;28;20108;-87
2021/12/25 09:53:40;;;;;;;2.75;1.33;;;12.50;99.90;;;;;;5090502;28;20048;-87
2021/12/25 09:56:06;;;;;;;5.22;2.17;;;12.70;99.90;;;;;;5091088;28;20034;-87
2021/12/25 09:58:31;;;;;;;3.38;1.88;;;12.80;99.90;;;;;;5090892;28;20467;-83
2021/12/25 10:00:58;;;;;;;6.05;3.20;;;12.90;99.90;;;;;;5090769;28;20043;-86
2021/12/25 10:03:39;;;;;;;7.20;2.97;;;12.90;99.90;;;;;;5090777;28;20559;-86
2021/12/25 10:06:05;;;;;;;2.17;1.27;;;12.90;99.90;;;;;;5090482;28;20143;-86
2021/12/25 10:08:31;;;;;;;3.78;1.58;;;13.00;99.90;;;;;;5090644;28;20111;-86
2021/12/25 10:11:01;;;;;;;2.47;1.42;;;13.00;99.90;;;;;;5090365;28;20027;-86
2021/12/25 10:13:37;;;;;;;1.73;1.20;;;13.00;99.90;;;;;;5090726;28;20154;-85
2021/12/25 10:16:24;;;;;;;2.72;1.45;;;13.10;99.90;;;;;;5091790;28;20061;-86
2021/12/25 10:18:52;;;;;;;2.47;1.50;;;13.10;99.90;;;;;;5076681;28;20479;-86
2021/12/25 10:21:26;;;;;;;4.70;2.60;;;13.20;99.90;;;;;;5077430;28;20367;-86
2021/12/25 10:24:29;;;;;;;4.70;2.50;;;13.30;99.90;;;;;;5077143;28;20382;-86
2021/12/25 10:27:16;;;;;;;4.80;2.70;;;13.30;99.90;;;;;;5067255;28;20032;-86
2021/12/25 10:29:42;;;;;;;4.88;2.67;;;13.40;99.90;;;;;;5076896;28;20023;-86
2021/12/25 11:01:24;;;;;;;;;;;12.90;99.90;;;;;;5073758;28;20368;-87
2021/12/25 11:03:52;;;;;;;9.23;4.22;;;13.00;99.90;;;;;;5071633;28;20322;-87
2021/12/25 11:06:18;;;;;;;2.92;1.48;;;13.20;99.90;;;;;;5088269;28;20021;-87
2021/12/25 11:08:47;;;;;;;4.70;2.90;;;13.40;99.30;;;;;;5088774;28;20021;-85
2021/12/25 11:11:19;;;;;;;7.72;3.67;;;13.70;99.90;;;;;;5088461;28;20033;-85
2021/12/25 11:13:51;;;;;;;3.30;1.58;;;13.90;99.90;;;;;;5088564;28;20033;-86
2021/12/25 11:16:27;;;;;;;3.92;2.00;;;14.10;97.50;;;;;;5088401;28;20025;-86
2021/12/25 11:19:05;;;;;;;2.05;1.20;;;14.20;98.10;;;;;;5088574;28;20059;-86
2021/12/25 11:21:38;;;;;;;7.57;3.30;;;14.40;96.50;;;;;;5088150;28;20088;-86
2021/12/25 11:24:14;;;;;;;5.72;3.15;;;14.50;97.40;;;;;;5088250;28;20028;-86
2021/12/25 11:26:42;;;;;;;7.43;3.47;;;14.50;95.90;;;;;;5087970;28;20428;-86
2021/12/25 11:29:11;;;;;;;6.47;3.03;;;14.60;96.60;;;;;;5071160;28;20025;-86
2021/12/25 11:31:37;;;;;;;2.53;1.30;;;14.70;95.60;;;;;;5071275;28;20070;-86
2021/12/25 11:34:04;;;;;;;4.60;2.17;;;14.60;95.00;;;;;;5071032;28;20035;-86
2021/12/25 11:36:31;;;;;;;5.95;2.67;;;14.70;95.50;;;;;;5071261;28;20047;-86
2021/12/25 11:38:56;;;;;;;9.05;3.80;;;14.70;94.80;;;;;;5071145;28;20501;-86
2021/12/25 11:41:30;;;;;;;8.15;3.25;;;14.70;95.10;;;;;;5070861;28;20021;-86
2021/12/25 11:43:57;;;;;;;7.13;3.47;;;14.70;94.60;;;;;;5070498;28;20025;-86
2021/12/25 11:46:40;;;;;;;15.23;6.68;;;14.70;94.90;;;;;;5070865;28;20035;-86
2021/12/25 11:49:10;;;;;;;4.93;2.17;;;14.80;95.30;;;;;;5070256;28;20399;-86
2021/12/25 11:51:39;;;;;;;7.30;3.72;;;14.80;94.30;;;;;;5071961;28;20477;-86
2021/12/25 11:55:14;;;;;;;5.13;2.65;;;14.90;94.50;;;;;;5071912;28;20017;-86
2021/12/25 11:59:48;;;;;;;5.55;3.05;;;15.00;97.20;;;;;;5070871;28;20048;-86
2021/12/25 12:02:38;;;;;;;7.95;4.07;;;15.00;94.90;;;;;;5070001;28;20112;-86
2021/12/25 12:05:25;;;;;;;7.28;3.40;;;15.20;97.40;;;;;;5069790;28;20483;-85
2021/12/25 12:08:03;;;;;;;6.18;2.90;;;15.20;95.60;;;;;;5070388;28;20029;-86
2021/12/25 12:10:44;;;;;;;9.40;5.70;;;15.20;95.20;;;;;;5070313;28;20029;-86
2021/12/25 12:13:21;;;;;;;5.50;3.20;;;15.30;96.40;;;;;;5057104;28;20051;-86
2021/12/25 12:15:49;;;;;;;10.73;5.00;;;15.30;94.90;;;;;;5057142;28;20116;-86
2021/12/25 12:18:24;;;;;;;16.35;8.55;;;15.30;95.50;;;;;;5056836;28;20025;-86
2021/12/25 12:20:51;;;;;;;8.90;5.22;;;15.30;95.20;;;;;;5057129;28;20025;-85
2021/12/25 12:23:53;;;;;;;9.10;4.80;;;15.30;94.60;;;;;;5056398;28;20374;-86
2021/12/25 12:26:44;;;;;;;11.57;5.13;;;15.40;96.00;;;;;;5056977;28;20006;-86
2021/12/25 12:29:11;;;;;;;5.50;2.80;;;15.40;94.10;;;;;;5056845;28;20017;-86
2021/12/25 12:31:47;;;;;;;4.15;1.67;;;15.40;93.50;;;;;;5056980;28;20079;-86
2021/12/25 12:34:33;;;;;;;4.72;2.13;;;15.40;93.50;;;;;;5056655;28;20115;-86
2021/12/25 12:37:14;;;;;;;;;;;15.30;92.90;;;;;;5057278;28;20421;-86
2021/12/25 12:39:41;;;;;;;12.20;6.70;;;15.30;94.90;;;;;;5058106;28;20374;-86
2021/12/25 12:42:11;;;;;;;17.98;11.13;;;15.30;95.00;;;;;;5056713;28;20025;-86
2021/12/25 12:44:37;;;;;;;5.78;2.72;;;15.30;95.90;;;;;;5056646;28;20024;-86
2021/12/25 12:47:15;;;;;;;5.20;2.88;;;15.40;93.00;;;;;;5056706;28;20024;-85
2021/12/25 12:49:50;;;;;;;8.02;3.88;;;15.40;92.20;;;;;;5056513;28;20032;-86
2021/12/25 12:52:20;;;;;;;7.38;4.20;;;15.40;92.40;;;;;;5056668;28;20556;-85
2021/12/25 12:54:48;;;;;;;3.88;2.45;;;15.40;93.80;;;;;;5055976;28;20033;-86
2021/12/25 12:57:33;;;;;;;6.35;2.80;;;15.30;91.40;;;;;;5056775;28;20032;-86
2021/12/25 13:00:14;;;;;;;9.75;4.32;;;15.40;92.40;;;;;;5055473;28;20072;-86
2021/12/25 13:02:47;;;;;;;10.60;4.68;;;15.40;92.50;;;;;;5056120;28;20025;-87
2021/12/25 13:05:17;;;;;;;12.52;4.47;;;15.40;94.20;;;;;;5056111;28;20120;-86
2021/12/25 13:07:45;;;;;;;8.40;3.70;;;15.40;93.00;;;;;;5056299;28;20021;-86
2021/12/25 13:10:34;;;;;;;22.90;8.05;;;15.40;93.10;;;;;;5056256;28;20028;-86
2021/12/25 13:13:24;;;;;;;20.52;9.55;;;15.50;92.30;;;;;;5057558;28;20502;-86
2021/12/25 13:16:00;;;;;;;19.05;7.95;;;15.50;92.70;;;;;;5055398;28;20036;-87
2021/12/25 13:18:37;;;;;;;15.23;6.47;;;15.50;92.20;;;;;;5056423;28;20032;-87
2021/12/25 13:21:11;;;;;;;15.13;6.07;;;15.60;92.00;;;;;;5056565;28;20115;-87
2021/12/25 13:23:48;;;;;;;6.80;3.10;;;15.60;91.10;;;;;;5054675;28;20021;-87
2021/12/25 13:26:15;;;;;;;11.23;4.22;;;15.60;91.10;;;;;;5057004;28;20017;-87
2021/12/25 13:28:43;;;;;;;9.10;4.82;;;15.60;92.70;;;;;;5056577;28;20020;-88
2021/12/25 13:31:12;;;;;;;10.95;5.72;;;15.60;92.60;;;;;;5056000;28;20025;-87
2021/12/25 13:34:03;;;;;;;10.13;5.20;;;15.60;93.40;;;;;;5055932;28;20032;-87
2021/12/25 13:36:34;;;;;;;7.70;3.95;;;15.60;91.90;;;;;;5055709;28;20021;-87
2021/12/25 13:39:03;;;;;;;8.18;4.85;;;15.60;91.00;;;;;;5055571;28;20052;-87
2021/12/25 13:41:45;;;;;;;13.10;5.68;;;15.60;91.00;;;;;;5055990;28;20464;-87
2021/12/25 13:44:21;;;;;;;10.82;4.90;;;15.60;91.10;;;;;;5055371;28;20078;-87
2021/12/25 13:46:47;;;;;;;8.63;3.95;;;15.50;92.40;;;;;;5055484;28;20044;-88
2021/12/25 13:49:33;;;;;;;14.52;5.55;;;15.50;91.00;;;;;;5055431;28;20025;-88
2021/12/25 13:52:00;;;;;;;;;;;15.60;91.20;;;;;;5056049;28;20025;-85
2021/12/25 13:54:26;;;;;;;20.67;9.50;;;15.60;92.60;;;;;;5072200;28;19916;-86
2021/12/25 13:56:54;;;;;;;56.30;22.27;;;15.60;91.90;;;;;;5055221;28;20075;-88
2021/12/25 13:59:21;;;;;;;32.13;12.15;;;15.60;91.00;;;;;;5054901;28;20048;-88
2021/12/25 14:01:59;;;;;;;43.35;18.92;;;15.70;90.10;;;;;;5055257;28;20104;-88
2021/12/25 14:04:25;;;;;;;34.75;14.48;;;15.60;90.30;;;;;;5055035;28;20452;-88
2021/12/25 14:06:51;;;;;;;63.45;25.25;;;15.50;90.80;;;;;;5055087;28;20056;-88
2021/12/25 14:09:17;;;;;;;46.00;20.20;;;15.50;90.70;;;;;;5054881;28;20063;-88
2021/12/25 14:11:54;;;;;;;26.13;11.35;;;15.50;91.00;;;;;;5055704;28;20028;-88
2021/12/25 14:14:21;;;;;;;18.65;8.82;;;15.40;91.90;;;;;;5055350;28;20111;-85
